createdAt,value
2023-04-16T00:02:14.826Z,60.78
2023-04-16T00:04:42.242Z,60.50
2023-04-16T00:07:09.482Z,60.46
2023-04-16T00:09:36.608Z,60.79
2023-04-16T00:12:04.764Z,60.49
2023-04-16T00:14:32.007Z,60.16
2023-04-16T00:16:59.318Z,60.35
2023-04-16T00:19:26.678Z,60.36
2023-04-16T00:21:54.074Z,60.27
2023-04-16T00:24:21.333Z,60.09
2023-04-16T00:26:48.445Z,60.25
2023-04-16T00:29:15.742Z,60.46
2023-04-16T00:31:42.950Z,60.58
2023-04-16T00:34:10.363Z,60.62
2023-04-16T00:36:37.525Z,60.47
2023-04-16T00:39:05.392Z,60.40
2023-04-16T00:41:32.635Z,60.11
2023-04-16T00:43:59.765Z,60.45
2023-04-16T00:46:27.431Z,60.54
2023-04-16T00:48:55.319Z,60.58
2023-04-16T00:51:22.950Z,60.83
2023-04-16T00:53:50.937Z,60.55
2023-04-16T00:56:20.536Z,59.67
2023-04-16T00:58:49.666Z,59.80
2023-04-16T01:01:16.990Z,60.26
2023-04-16T01:03:49.314Z,60.21
2023-04-16T01:06:18.698Z,60.26
2023-04-16T01:08:48.414Z,60.56
2023-04-16T01:11:16.522Z,60.82
2023-04-16T01:13:43.716Z,60.87
2023-04-16T01:16:13.201Z,60.96
2023-04-16T01:18:40.784Z,61.03
2023-04-16T01:21:08.301Z,60.51
2023-04-16T01:23:35.558Z,61.07
2023-04-16T01:26:02.936Z,60.60
2023-04-16T01:28:30.134Z,60.70
2023-04-16T01:30:57.415Z,60.66
2023-04-16T01:33:37.606Z,60.63
2023-04-16T01:36:04.969Z,60.81
2023-04-16T01:38:32.198Z,60.66
2023-04-16T01:40:59.758Z,60.79
2023-04-16T01:43:27.024Z,60.87
2023-04-16T01:46:12.905Z,60.56
2023-04-16T01:48:40.083Z,60.65
2023-04-16T01:51:07.235Z,60.59
2023-04-16T01:53:35.811Z,60.42
2023-04-16T01:56:05.541Z,60.24
2023-04-16T01:58:33.968Z,60.38
2023-04-16T02:01:01.310Z,60.21
2023-04-16T02:03:28.874Z,60.55
2023-04-16T02:05:56.173Z,60.73
2023-04-16T02:08:23.819Z,60.72
2023-04-16T02:10:51.231Z,61.05
2023-04-16T02:13:18.470Z,61.24
2023-04-16T02:15:49.429Z,61.73
2023-04-16T02:18:21.359Z,62.02
2023-04-16T02:20:49.888Z,61.84
2023-04-16T02:23:18.262Z,62.22
2023-04-16T02:25:47.358Z,61.93
2023-04-16T02:28:17.507Z,61.92
2023-04-16T02:30:46.630Z,62.05
2023-04-16T02:33:16.350Z,62.24
2023-04-16T02:35:54.023Z,62.18
2023-04-16T02:38:21.632Z,62.33
2023-04-16T02:40:48.947Z,61.91
2023-04-16T02:43:17.357Z,61.75
2023-04-16T02:45:44.903Z,61.51
2023-04-16T02:48:12.273Z,61.64
2023-04-16T02:50:39.459Z,61.44
2023-04-16T02:53:07.846Z,60.94
2023-04-16T02:55:35.114Z,60.88
2023-04-16T02:58:02.232Z,60.59
2023-04-16T03:00:29.608Z,61.12
2023-04-16T03:02:57.239Z,61.03
2023-04-16T03:05:24.697Z,60.47
2023-04-16T03:07:56.582Z,59.75
2023-04-16T03:10:24.267Z,59.34
2023-04-16T03:12:51.564Z,58.83
2023-04-16T03:15:18.759Z,59.02
2023-04-16T03:17:46.128Z,59.17
2023-04-16T03:20:14.472Z,59.54
2023-04-16T03:22:41.959Z,59.69
2023-04-16T03:25:09.677Z,60.26
2023-04-16T03:27:37.037Z,60.52
2023-04-16T03:30:05.765Z,60.78
2023-04-16T03:32:34.984Z,60.92
2023-04-16T03:35:09.026Z,61.10
2023-04-16T03:37:37.537Z,61.10
2023-04-16T03:40:06.977Z,61.03
2023-04-16T03:42:34.194Z,60.85
2023-04-16T03:45:02.270Z,60.98
2023-04-16T03:47:29.534Z,61.06
2023-04-16T03:50:00.544Z,60.90
2023-04-16T03:52:28.573Z,60.99
2023-04-16T03:54:56.685Z,61.12
2023-04-16T03:57:30.468Z,61.40
2023-04-16T04:00:04.357Z,61.27
2023-04-16T04:02:42.025Z,61.28
2023-04-16T04:05:16.834Z,61.38
2023-04-16T04:07:45.304Z,61.12
2023-04-16T04:10:14.292Z,61.06
2023-04-16T04:12:43.044Z,60.72
2023-04-16T04:15:11.679Z,60.72
2023-04-16T04:17:38.959Z,61.04
2023-04-16T04:20:07.147Z,61.22
2023-04-16T04:22:34.466Z,60.70
2023-04-16T04:25:01.725Z,60.45
2023-04-16T04:27:31.095Z,60.92
2023-04-16T04:29:58.880Z,60.58
2023-04-16T04:32:26.138Z,60.21
2023-04-16T04:34:53.556Z,59.22
2023-04-16T04:37:21.105Z,58.79
2023-04-16T04:39:48.444Z,58.84
2023-04-16T04:42:18.659Z,59.17
2023-04-16T04:44:46.724Z,59.25
2023-04-16T04:47:15.209Z,59.20
2023-04-16T04:49:42.444Z,59.35
2023-04-16T04:52:09.695Z,58.92
2023-04-16T04:54:37.144Z,59.06
2023-04-16T04:57:05.816Z,58.99
2023-04-16T04:59:33.196Z,58.72
2023-04-16T05:02:03.459Z,58.29
2023-04-16T05:04:31.666Z,58.22
2023-04-16T05:06:59.031Z,57.79
2023-04-16T05:09:26.477Z,57.66
2023-04-16T05:11:53.709Z,57.71
2023-04-16T05:14:21.243Z,57.14
2023-04-16T05:16:48.530Z,57.03
2023-04-16T05:19:17.435Z,56.94
2023-04-16T05:21:44.608Z,56.98
2023-04-16T05:24:13.071Z,57.14
2023-04-16T05:26:42.178Z,56.96
2023-04-16T05:29:09.512Z,56.60
2023-04-16T05:31:36.895Z,56.20
2023-04-16T05:34:04.426Z,56.46
2023-04-16T05:36:31.692Z,56.77
2023-04-16T05:38:59.145Z,56.68
2023-04-16T05:41:26.269Z,56.24
2023-04-16T05:43:53.393Z,56.73
2023-04-16T05:46:20.632Z,55.89
2023-04-16T05:48:47.693Z,55.58
2023-04-16T05:51:15.425Z,55.73
2023-04-16T05:53:43.193Z,54.87
2023-04-16T05:56:10.671Z,54.37
2023-04-16T05:58:38.043Z,54.45
2023-04-16T06:01:05.420Z,54.32
2023-04-16T06:03:32.712Z,54.64
2023-04-16T06:05:59.937Z,54.59
2023-04-16T06:08:27.397Z,54.46
2023-04-16T06:10:54.589Z,54.65
2023-04-16T06:13:21.822Z,54.33
2023-04-16T06:15:49.130Z,53.85
2023-04-16T06:18:16.336Z,53.68
2023-04-16T06:20:43.509Z,53.30
2023-04-16T06:23:10.911Z,52.74
2023-04-16T06:25:38.152Z,52.27
2023-04-16T06:28:05.629Z,52.11
2023-04-16T06:30:32.857Z,52.25
2023-04-16T06:33:00.176Z,51.76
2023-04-16T06:35:27.292Z,51.46
2023-04-16T06:37:54.556Z,50.97
2023-04-16T06:40:21.783Z,50.88
2023-04-16T06:42:49.021Z,50.15
2023-04-16T06:45:16.370Z,49.74
2023-04-16T06:47:43.759Z,48.97
2023-04-16T06:50:11.331Z,48.38
2023-04-16T06:52:38.502Z,48.25
2023-04-16T06:55:08.330Z,48.22
2023-04-16T06:57:37.490Z,47.82
2023-04-16T07:00:05.552Z,47.47
2023-04-16T07:02:32.994Z,47.57
2023-04-16T07:05:00.611Z,47.94
2023-04-16T07:07:27.693Z,47.59
2023-04-16T07:09:54.838Z,47.51
2023-04-16T07:12:22.832Z,46.86
2023-04-16T07:14:50.303Z,46.76
2023-04-16T07:17:17.385Z,46.37
2023-04-16T07:19:44.781Z,46.02
2023-04-16T07:22:11.935Z,45.65
2023-04-16T07:24:39.004Z,45.63
2023-04-16T07:27:06.195Z,44.99
2023-04-16T07:29:33.389Z,45.18
2023-04-16T07:32:00.673Z,44.78
2023-04-16T07:34:27.902Z,44.55
2023-04-16T07:36:54.968Z,44.67
2023-04-16T07:39:22.082Z,44.56
2023-04-16T07:41:49.367Z,43.98
2023-04-16T07:44:16.865Z,43.77
2023-04-16T07:46:47.378Z,43.66
2023-04-16T07:49:15.571Z,43.15
2023-04-16T07:51:42.881Z,42.34
2023-04-16T07:54:11.091Z,41.67
2023-04-16T07:56:38.314Z,42.92
2023-04-16T07:59:21.214Z,42.58
2023-04-16T08:01:50.768Z,43.00
2023-04-16T08:04:23.324Z,42.75
2023-04-16T08:06:54.472Z,41.85
2023-04-16T08:09:30.416Z,41.88
2023-04-16T08:11:57.619Z,42.81
2023-04-16T08:14:24.763Z,42.22
2023-04-16T08:16:52.273Z,42.16
2023-04-16T08:19:19.612Z,41.72
2023-04-16T08:21:47.396Z,41.01
2023-04-16T08:24:14.566Z,41.44
2023-04-16T08:26:41.750Z,41.38
2023-04-16T08:29:09.117Z,41.17
2023-04-16T08:31:36.504Z,40.86
2023-04-16T08:34:03.832Z,40.87
2023-04-16T08:36:31.502Z,40.88
2023-04-16T08:38:58.821Z,40.75
2023-04-16T08:41:28.156Z,40.02
2023-04-16T08:43:57.773Z,39.99
2023-04-16T08:46:26.841Z,40.01
2023-04-16T08:48:58.116Z,39.64
2023-04-16T08:51:30.204Z,39.56
2023-04-16T08:54:05.525Z,38.90
2023-04-16T08:56:37.197Z,38.13
2023-04-16T08:59:05.691Z,38.29
2023-04-16T09:01:34.065Z,38.29
2023-04-16T09:04:05.340Z,38.80
2023-04-16T09:06:36.780Z,38.56
2023-04-16T09:09:06.262Z,38.39
2023-04-16T09:11:39.844Z,37.69
2023-04-16T09:14:11.442Z,37.91
2023-04-16T09:16:42.828Z,37.97
2023-04-16T09:19:10.296Z,37.82
2023-04-16T09:21:39.005Z,37.60
2023-04-16T09:24:06.885Z,38.16
2023-04-16T09:26:34.522Z,37.71
2023-04-16T09:29:02.070Z,38.19
2023-04-16T09:31:29.783Z,37.58
2023-04-16T09:34:15.139Z,37.49
2023-04-16T09:36:42.585Z,38.57
2023-04-16T09:39:22.895Z,37.52
2023-04-16T09:41:55.159Z,37.47
2023-04-16T09:44:37.160Z,37.40
2023-04-16T09:47:09.828Z,37.58
2023-04-16T09:49:43.140Z,38.10
2023-04-16T09:52:17.965Z,38.15
2023-04-16T09:54:53.626Z,38.07
2023-04-16T09:57:25.267Z,38.36
2023-04-16T10:00:07.812Z,37.62
2023-04-16T10:02:39.012Z,37.78
2023-04-16T10:05:07.097Z,37.73
2023-04-16T10:07:36.628Z,37.39
2023-04-16T10:10:05.065Z,36.79
2023-04-16T10:12:35.751Z,36.82
2023-04-16T10:15:02.982Z,36.40
2023-04-16T10:17:31.632Z,36.55
2023-04-16T10:19:59.135Z,36.03
2023-04-16T10:22:26.708Z,36.03
2023-04-16T10:24:54.803Z,35.85
2023-04-16T10:27:26.483Z,36.07
2023-04-16T10:29:53.656Z,35.36
2023-04-16T10:32:21.917Z,36.12
2023-04-16T10:34:49.228Z,35.78
2023-04-16T10:37:18.115Z,35.94
2023-04-16T10:39:45.331Z,35.93
2023-04-16T10:42:13.499Z,36.82
2023-04-16T10:44:44.325Z,37.00
2023-04-16T10:47:14.381Z,36.23
2023-04-16T10:49:43.603Z,35.90
2023-04-16T10:52:17.334Z,35.67
2023-04-16T10:54:44.994Z,35.51
2023-04-16T10:57:20.863Z,35.22
2023-04-16T10:59:49.500Z,35.49
2023-04-16T11:02:18.845Z,35.50
2023-04-16T11:04:48.568Z,35.50
2023-04-16T11:07:19.157Z,35.51
2023-04-16T11:10:08.143Z,34.50
2023-04-16T11:12:40.517Z,35.55
2023-04-16T11:15:16.510Z,34.56
2023-04-16T11:17:50.926Z,35.02
2023-04-16T11:20:25.792Z,35.85
2023-04-16T11:22:56.095Z,35.67
2023-04-16T11:25:31.887Z,34.31
2023-04-16T11:27:59.433Z,34.11
2023-04-16T11:30:36.358Z,33.00
2023-04-16T11:33:14.255Z,32.81
2023-04-16T11:35:43.406Z,31.58
2023-04-16T11:38:10.498Z,32.56
2023-04-16T11:40:37.683Z,32.59
2023-04-16T11:43:14.935Z,32.86
2023-04-16T11:45:56.527Z,32.38
2023-04-16T11:48:23.594Z,31.69
2023-04-16T11:50:58.877Z,31.67
2023-04-16T11:53:26.180Z,30.63
2023-04-16T11:55:53.314Z,30.13
2023-04-16T11:58:22.294Z,30.09
2023-04-16T12:00:53.378Z,29.60
2023-04-16T12:03:39.556Z,29.88
2023-04-16T12:06:10.633Z,29.73
2023-04-16T12:08:37.878Z,30.02
2023-04-16T12:11:05.524Z,30.14
2023-04-16T12:13:39.740Z,29.86
2023-04-16T12:16:21.114Z,29.42
2023-04-16T12:19:04.108Z,29.68
2023-04-16T12:21:51.184Z,29.82
2023-04-16T12:24:20.903Z,29.55
2023-04-16T12:26:56.187Z,29.30
2023-04-16T12:29:24.844Z,28.56
2023-04-16T12:31:53.527Z,29.24
2023-04-16T12:34:22.233Z,29.21
2023-04-16T12:37:10.668Z,28.77
2023-04-16T12:39:37.842Z,28.79
2023-04-16T12:42:06.446Z,29.97
2023-04-16T12:44:33.524Z,30.26
2023-04-16T12:47:00.877Z,29.58
2023-04-16T12:49:28.077Z,28.40
2023-04-16T12:51:55.386Z,28.05
2023-04-16T12:54:22.694Z,28.47
2023-04-16T12:56:50.022Z,27.68
2023-04-16T12:59:17.946Z,25.90
2023-04-16T13:01:47.400Z,26.05
2023-04-16T13:04:19.205Z,27.43
2023-04-16T13:06:46.702Z,28.77
2023-04-16T13:09:14.390Z,30.08
2023-04-16T13:11:41.910Z,30.71
2023-04-16T13:14:10.805Z,31.17
2023-04-16T13:16:38.942Z,31.61
2023-04-16T13:19:06.543Z,31.05
2023-04-16T13:21:41.640Z,31.05
2023-04-16T13:24:09.373Z,32.37
2023-04-16T13:26:36.755Z,32.39
2023-04-16T13:29:04.045Z,31.87
2023-04-16T13:31:31.215Z,31.74
2023-04-16T13:33:58.824Z,31.68
2023-04-16T13:36:27.614Z,31.63
2023-04-16T13:38:55.271Z,31.60
2023-04-16T13:41:22.495Z,31.92
2023-04-16T13:43:49.931Z,32.66
2023-04-16T13:46:17.361Z,33.34
2023-04-16T13:48:45.295Z,34.36
2023-04-16T13:51:13.959Z,35.36
2023-04-16T13:53:42.861Z,36.86
2023-04-16T13:56:11.360Z,36.93
2023-04-16T13:58:38.979Z,36.23
2023-04-16T14:01:06.359Z,36.55
2023-04-16T14:03:36.202Z,36.17
2023-04-16T14:06:04.646Z,36.95
2023-04-16T14:08:32.333Z,36.97
2023-04-16T14:11:00.708Z,36.07
2023-04-16T14:13:30.722Z,37.09
2023-04-16T14:15:58.021Z,36.44
2023-04-16T14:18:25.816Z,35.00
2023-04-16T14:20:52.898Z,34.56
2023-04-16T14:23:20.054Z,35.25
2023-04-16T14:25:47.487Z,36.70
2023-04-16T14:28:15.723Z,36.84
2023-04-16T14:30:43.057Z,37.64
2023-04-16T14:33:10.276Z,37.58
2023-04-16T14:35:37.362Z,39.14
2023-04-16T14:38:04.590Z,39.30
2023-04-16T14:40:31.807Z,40.30
2023-04-16T14:42:59.149Z,39.84
2023-04-16T14:45:28.868Z,39.29
2023-04-16T14:47:56.107Z,35.73
2023-04-16T14:50:23.525Z,35.41
2023-04-16T14:52:51.842Z,35.65
2023-04-16T14:55:19.232Z,35.91
2023-04-16T14:57:46.510Z,37.64
2023-04-16T15:00:18.724Z,39.15
2023-04-16T15:02:48.428Z,39.08
2023-04-16T15:05:15.870Z,38.97
2023-04-16T15:07:42.984Z,40.25
2023-04-16T15:10:10.866Z,41.13
2023-04-16T15:12:38.846Z,39.90
2023-04-16T15:15:08.255Z,38.47
2023-04-16T15:17:35.710Z,37.62
2023-04-16T15:20:05.907Z,39.60
2023-04-16T15:22:33.109Z,37.17
2023-04-16T15:25:00.324Z,34.96
2023-04-16T15:27:27.813Z,34.91
2023-04-16T15:29:55.536Z,34.77
2023-04-16T15:32:22.949Z,35.43
2023-04-16T15:34:50.299Z,35.96
2023-04-16T15:37:17.471Z,34.44
2023-04-16T15:39:44.688Z,34.60
2023-04-16T15:42:12.319Z,33.77
2023-04-16T15:44:39.525Z,32.50
2023-04-16T15:47:07.933Z,32.86
2023-04-16T15:49:36.116Z,36.73
2023-04-16T15:52:04.326Z,39.48
2023-04-16T15:54:32.071Z,39.18
2023-04-16T15:56:59.399Z,39.53
2023-04-16T15:59:27.603Z,40.37
2023-04-16T16:01:54.984Z,42.35
2023-04-16T16:04:23.401Z,44.65
2023-04-16T16:06:51.276Z,45.81
2023-04-16T16:09:25.685Z,46.13
2023-04-16T16:11:59.017Z,46.15
2023-04-16T16:14:27.041Z,45.17
2023-04-16T16:16:54.336Z,44.87
2023-04-16T16:19:21.623Z,45.44
2023-04-16T16:21:48.998Z,45.44
2023-04-16T16:24:16.092Z,46.16
2023-04-16T16:26:46.236Z,46.54
2023-04-16T16:29:13.462Z,46.95
2023-04-16T16:31:40.706Z,47.80
2023-04-16T16:34:07.826Z,48.37
2023-04-16T16:36:37.712Z,48.85
2023-04-16T16:39:05.131Z,49.81
2023-04-16T16:41:33.403Z,51.14
2023-04-16T16:44:00.600Z,52.38
2023-04-16T16:46:27.750Z,53.05
2023-04-16T16:48:54.923Z,53.07
2023-04-16T16:51:22.235Z,53.20
2023-04-16T16:53:49.423Z,52.84
2023-04-16T16:56:16.977Z,52.57
2023-04-16T16:58:44.267Z,52.75
2023-04-16T17:01:11.847Z,52.25
2023-04-16T17:03:39.117Z,52.56
2023-04-16T17:06:06.531Z,51.98
2023-04-16T17:08:33.796Z,51.37
2023-04-16T17:11:04.644Z,51.27
2023-04-16T17:13:32.847Z,52.16
2023-04-16T17:16:00.030Z,53.25
2023-04-16T17:18:28.082Z,52.73
2023-04-16T17:20:55.240Z,53.50
2023-04-16T17:23:22.470Z,54.09
2023-04-16T17:25:50.123Z,54.91
2023-04-16T17:28:17.654Z,55.21
2023-04-16T17:30:45.306Z,55.87
2023-04-16T17:33:12.665Z,56.59
2023-04-16T17:35:41.064Z,56.99
2023-04-16T17:38:08.191Z,56.59
2023-04-16T17:40:35.261Z,57.05
2023-04-16T17:43:02.421Z,57.60
2023-04-16T17:45:29.458Z,56.89
2023-04-16T17:47:56.818Z,56.11
2023-04-16T17:50:24.063Z,56.80
2023-04-16T17:52:51.267Z,57.64
2023-04-16T17:55:18.504Z,57.46
2023-04-16T17:57:45.854Z,59.47
2023-04-16T18:00:14.424Z,59.22
2023-04-16T18:02:42.027Z,59.21
2023-04-16T18:05:09.820Z,59.55
2023-04-16T18:07:37.773Z,59.79
2023-04-16T18:10:06.044Z,59.99
2023-04-16T18:12:33.782Z,60.00
2023-04-16T18:15:00.943Z,60.07
2023-04-16T18:17:28.453Z,60.00
2023-04-16T18:19:56.757Z,60.03
2023-04-16T18:22:25.661Z,60.10
2023-04-16T18:24:54.085Z,60.53
2023-04-16T18:27:21.636Z,60.97
2023-04-16T18:29:49.492Z,61.57
2023-04-16T18:32:16.923Z,61.99
2023-04-16T18:34:44.333Z,61.86
2023-04-16T18:37:11.652Z,62.21
2023-04-16T18:39:38.802Z,62.19
2023-04-16T18:42:06.431Z,61.97
2023-04-16T18:44:33.742Z,61.74
2023-04-16T18:47:01.145Z,61.31
2023-04-16T18:49:35.178Z,61.25
2023-04-16T18:52:05.687Z,60.36
2023-04-16T18:54:32.865Z,60.11
2023-04-16T18:57:02.749Z,60.27
2023-04-16T18:59:40.056Z,60.09
2023-04-16T19:02:07.699Z,59.85
2023-04-16T19:04:34.997Z,59.40
2023-04-16T19:07:02.416Z,59.20
2023-04-16T19:09:29.679Z,59.69
2023-04-16T19:11:57.598Z,59.72
2023-04-16T19:14:24.829Z,59.71
2023-04-16T19:16:52.174Z,59.74
2023-04-16T19:19:19.342Z,60.25
2023-04-16T19:21:46.414Z,60.02
2023-04-16T19:24:13.606Z,60.26
2023-04-16T19:26:40.958Z,60.51
2023-04-16T19:29:08.061Z,61.23
2023-04-16T19:31:35.341Z,61.30
2023-04-16T19:34:02.463Z,61.41
2023-04-16T19:36:29.562Z,61.44
2023-04-16T19:38:56.752Z,61.49
2023-04-16T19:41:24.104Z,61.81
2023-04-16T19:43:51.273Z,61.50
2023-04-16T19:46:18.460Z,61.84
2023-04-16T19:48:45.681Z,61.97
2023-04-16T19:51:12.736Z,61.99
2023-04-16T19:53:39.814Z,62.25
2023-04-16T19:56:06.967Z,62.33
2023-04-16T19:58:34.223Z,62.26
2023-04-16T20:01:01.411Z,61.73
2023-04-16T20:03:31.726Z,61.50
2023-04-16T20:05:59.083Z,61.43
2023-04-16T20:08:26.240Z,61.23
2023-04-16T20:10:56.441Z,61.37
2023-04-16T20:13:23.757Z,61.08
2023-04-16T20:15:54.557Z,61.26
2023-04-16T20:18:21.577Z,61.10
2023-04-16T20:20:48.727Z,61.25
2023-04-16T20:23:16.000Z,61.23
2023-04-16T20:25:43.545Z,61.12
2023-04-16T20:28:10.871Z,61.20
2023-04-16T20:30:41.592Z,61.50
2023-04-16T20:33:09.714Z,61.79
2023-04-16T20:35:37.059Z,61.41
2023-04-16T20:38:04.511Z,61.18
2023-04-16T20:40:31.921Z,61.23
2023-04-16T20:43:00.576Z,61.10
2023-04-16T20:45:38.454Z,60.54
2023-04-16T20:48:07.997Z,60.06
2023-04-16T20:50:35.187Z,60.05
2023-04-16T20:53:02.331Z,60.44
2023-04-16T20:55:29.536Z,60.88
2023-04-16T20:57:56.699Z,61.50
2023-04-16T21:00:24.087Z,61.46
2023-04-16T21:02:51.600Z,61.47
2023-04-16T21:05:21.376Z,61.01
2023-04-16T21:07:48.616Z,60.61
2023-04-16T21:10:20.115Z,60.83
2023-04-16T21:12:47.555Z,60.37
2023-04-16T21:15:14.856Z,60.71
2023-04-16T21:17:42.073Z,60.54
2023-04-16T21:20:13.710Z,60.85
2023-04-16T21:22:42.177Z,60.62
2023-04-16T21:25:09.956Z,60.34
2023-04-16T21:27:37.145Z,59.96
2023-04-16T21:30:04.954Z,60.41
2023-04-16T21:32:32.094Z,60.36
2023-04-16T21:34:59.374Z,60.59
2023-04-16T21:37:26.533Z,60.69
2023-04-16T21:39:53.704Z,60.63
2023-04-16T21:42:20.928Z,60.80
2023-04-16T21:44:48.041Z,61.09
2023-04-16T21:47:15.175Z,61.25
2023-04-16T21:49:42.443Z,60.78
2023-04-16T21:52:18.325Z,60.72
2023-04-16T21:54:46.792Z,60.43
2023-04-16T21:57:14.040Z,60.76
2023-04-16T21:59:41.458Z,61.11
2023-04-16T22:02:08.828Z,61.32
2023-04-16T22:04:39.444Z,61.42
2023-04-16T22:07:11.825Z,60.91
2023-04-16T22:09:40.413Z,61.03
2023-04-16T22:12:10.272Z,61.08
2023-04-16T22:14:44.001Z,61.30
2023-04-16T22:17:15.122Z,61.60
2023-04-16T22:19:42.467Z,60.98
2023-04-16T22:22:09.642Z,60.54
2023-04-16T22:24:36.772Z,60.83
2023-04-16T22:27:04.277Z,60.91
2023-04-16T22:29:31.430Z,60.69
2023-04-16T22:32:00.725Z,60.90
2023-04-16T22:34:27.933Z,60.99
2023-04-16T22:36:55.054Z,60.88
2023-04-16T22:39:22.795Z,61.33
2023-04-16T22:41:49.987Z,60.98
2023-04-16T22:44:17.087Z,60.92
2023-04-16T22:46:45.466Z,61.30
2023-04-16T22:49:13.267Z,61.75
2023-04-16T22:51:40.744Z,62.31
2023-04-16T22:54:09.198Z,62.17
2023-04-16T22:56:36.823Z,61.82
2023-04-16T22:59:03.927Z,61.84
2023-04-16T23:01:31.325Z,61.59
2023-04-16T23:03:58.593Z,61.78
2023-04-16T23:06:27.175Z,61.86
2023-04-16T23:08:54.347Z,61.45
2023-04-16T23:11:22.096Z,61.79
2023-04-16T23:13:49.250Z,61.73
2023-04-16T23:16:16.424Z,61.70
2023-04-16T23:18:43.690Z,61.24
2023-04-16T23:21:11.020Z,61.61
2023-04-16T23:23:38.148Z,61.66
2023-04-16T23:26:05.471Z,62.44
2023-04-16T23:28:32.671Z,62.20
2023-04-16T23:30:59.812Z,62.31
2023-04-16T23:33:27.258Z,61.95
2023-04-16T23:35:54.323Z,62.17
2023-04-16T23:38:21.530Z,62.27
2023-04-16T23:40:48.737Z,62.35
2023-04-16T23:43:16.176Z,62.61
2023-04-16T23:45:43.392Z,62.26
2023-04-16T23:48:10.652Z,62.58
2023-04-16T23:50:37.802Z,62.37
2023-04-16T23:53:04.908Z,62.87
2023-04-16T23:55:32.074Z,62.67
2023-04-16T23:57:59.234Z,61.89
